Shuri — JL6688 — position and weather

sailwx.info

Track history (hours):
 
Tides and Currents Weather Stations Pressure Air Temp Water Temp Dewpoint Dewpoint Depression Visibility Wind Speed Wind Dir Waves Ship Positions

Shuri

Last reported at 2017-Dec-11 16:26 UTC. Time now 2017-Dec-12 17:56 UTC.
Position N 34°28' E 138°21'.

Length 167 m; draft 6.4 m.

Type: Cargo ship. MMSI: 431501723.

Date/timePositionNaut miles runAvg speedWind from/ knotsBaromVisibWave heightAir tempDewpointWater temp
2017-Dec-11 16:26N 34°28' E 138°21'816.6
2017-Dec-11 15:57N 34°29' E 138°30'816.5
2017-Dec-11 15:30N 34°31' E 138°39'816.7
2017-Dec-11 15:00N 34°32' E 138°49'816.3
2017-Dec-11 14:30N 34°33' E 138°59'816.0
2017-Dec-11 14:00N 34°37' E 139°07'917.5
2017-Dec-11 13:30N 34°44' E 139°14'917.7
2017-Dec-11 13:00N 34°51' E 139°21'917.2
2017-Dec-11 12:29N 34°57' E 139°29'817.8
2017-Dec-11 12:01N 35°02' E 139°37'917.6
2017-Dec-11 11:30N 35°09' E 139°44'713.3
2017-Dec-11 11:00N 35°15' E 139°46'612.5
2017-Dec-11 10:30N 35°21' E 139°43'816.3
2017-Dec-11 10:01N 35°28' E 139°48'713.3
2017-Dec-11 09:30N 35°34' E 139°49'3 6.9
2017-Dec-11 09:00N 35°37' E 139°47'0 0.0
2017-Dec-11 01:32N 35°37' E 139°47'0 0.0
2017-Dec-11 01:29N 35°37' E 139°47'0 0.0
2017-Dec-11 00:59N 35°37' E 139°47'0 0.0
2017-Dec-10 23:44N 35°37' E 139°47'0 0.0
2017-Dec-10 22:47N 35°37' E 139°47'0 0.0
2017-Dec-10 22:29N 35°37' E 139°47'0 0.0
2017-Dec-10 21:59N 35°37' E 139°47'0 0.0
2017-Dec-10 20:53N 35°37' E 139°47'0 0.0
2017-Dec-10 19:17N 35°37' E 139°47'0 0.0
2017-Dec-10 17:35N 35°37' E 139°47'0 0.0
2017-Dec-10 16:05N 35°37' E 139°47'0 0.1
2017-Dec-10 15:59N 35°37' E 139°47'0 0.0
2017-Dec-10 10:20N 35°37' E 139°47'0 0.0
2017-Dec-10 09:59N 35°37' E 139°47'0 0.0
2017-Dec-10 09:29N 35°37' E 139°47'0 0.0
2017-Dec-10 08:23N 35°37' E 139°47'0 0.0
2017-Dec-10 07:59N 35°37' E 139°47'0 0.0
2017-Dec-10 07:23N 35°37' E 139°47'0 0.0
2017-Dec-10 05:59N 35°37' E 139°47'0 0.0
2017-Dec-10 03:35N 35°37' E 139°47'0 0.0
2017-Dec-10 03:05N 35°37' E 139°47'0 0.0
2017-Dec-10 02:47N 35°37' E 139°47'0 0.0
2017-Dec-10 00:41N 35°37' E 139°47'0 0.0
2017-Dec-10 00:23N 35°37' E 139°47'0 0.0
2017-Dec-09 23:32N 35°37' E 139°47'0 0.0
2017-Dec-09 23:29N 35°37' E 139°47'0 0.3
2017-Dec-09 23:00N 35°37' E 139°47'3 6.0
2017-Dec-09 22:30N 35°35' E 139°48'510.2
2017-Dec-09 22:01N 35°31' E 139°52'815.3
2017-Dec-09 21:30N 35°24' E 139°47'612.6
2017-Dec-09 21:00N 35°18' E 139°44'611.6
2017-Dec-09 20:31N 35°13' E 139°47'713.2
2017-Dec-09 20:00N 35°06' E 139°45'917.2
2017-Dec-09 19:30N 34°59' E 139°40'918.7
2017-Dec-09 19:00N 34°54' E 139°30'1020.0
2017-Dec-09 18:31N 34°49' E 139°20'1120.2
2017-Dec-09 17:59N 34°41' E 139°11'1020.6
2017-Dec-09 17:31N 34°34' E 139°03'1221.0
2017-Dec-09 16:57N 34°29' E 138°50'1021.0
2017-Dec-09 16:29N 34°26' E 138°39'1021.6
2017-Dec-09 16:00N 34°22' E 138°27'1321.3
2017-Dec-09 15:24N 34°15' E 138°14'9220.1
2017-Dec-09 10:51N 33°36' E 136°34'5917.9
2017-Dec-09 07:33N 33°30' E 135°24'519.5
2017-Dec-09 07:17N 33°33' E 135°19'1620.3
2017-Dec-09 06:30N 33°45' E 135°07'1020.5
2017-Dec-09 06:00N 33°54' E 135°00'1019.4
2017-Dec-09 05:30N 34°03' E 134°59'918.8
2017-Dec-09 05:00N 34°13' E 134°58'816.5
2017-Dec-09 04:31N 34°21' E 135°00'917.4
2017-Dec-09 04:01N 34°27' E 135°07'918.1
2017-Dec-09 03:31N 34°33' E 135°16'815.9
2017-Dec-09 03:00N 34°38' E 135°23'2 3.7
2017-Dec-09 02:29N 34°37' E 135°26'0 0.0
2017-Dec-09 01:59N 34°37' E 135°26'0 0.0
2017-Dec-09 01:29N 34°37' E 135°26'0 0.0
2017-Dec-09 00:59N 34°37' E 135°26'0 0.0
2017-Dec-09 00:29N 34°37' E 135°26'0 0.0
2017-Dec-08 23:59N 34°37' E 135°26'0 0.0
2017-Dec-08 23:29N 34°37' E 135°26'0 0.0
2017-Dec-08 22:59N 34°37' E 135°26'0 0.0
2017-Dec-08 22:29N 34°37' E 135°26'0 0.5
2017-Dec-08 22:01N 34°37' E 135°25'5 9.3
2017-Dec-08 21:30N 34°36' E 135°20'917.6
2017-Dec-08 21:00N 34°29' E 135°13'917.4
2017-Dec-08 20:30N 34°23' E 135°05'817.0
2017-Dec-08 20:01N 34°16' E 134°59'816.8
2017-Dec-08 19:30N 34°08' E 134°57'917.8
2017-Dec-08 19:00N 33°60' E 134°54'917.5
2017-Dec-08 18:30N 33°51' E 134°52'917.2
2017-Dec-08 18:00N 33°44' E 134°46'9718.0
2017-Dec-08 12:38N 32°44' E 133°16'  
2017-Dec-04 10:31N 35°25' E 139°44'917.4
2017-Dec-04 10:00N 35°31' E 139°51'612.2
2017-Dec-04 09:30N 35°37' E 139°48'1 1.5
2017-Dec-04 08:58N 35°37' E 139°47'0 0.0
2017-Dec-04 08:19N 35°37' E 139°47'0 0.0
2017-Dec-04 07:58N 35°37' E 139°47'0 0.0
2017-Dec-04 06:46N 35°37' E 139°47'0 0.0
2017-Dec-04 06:16N 35°37' E 139°47'0 0.0
2017-Dec-04 05:28N 35°37' E 139°47'0 0.0
2017-Dec-04 04:58N 35°37' E 139°47'0 0.0
2017-Dec-04 04:28N 35°37' E 139°47'0 0.0
2017-Dec-04 03:55N 35°37' E 139°47'0 0.0
2017-Dec-04 02:31N 35°37' E 139°47'0 0.0
2017-Dec-04 02:22N 35°37' E 139°47'0 0.0
2017-Dec-04 01:49N 35°37' E 139°47'0 0.0
2017-Dec-04 01:22N 35°37' E 139°47'0 0.0
2017-Dec-04 00:58N 35°37' E 139°47'0 0.0
2017-Dec-04 00:28N 35°37' E 139°47'0 0.0
2017-Dec-03 23:58N 35°37' E 139°47'0 0.0
2017-Dec-03 23:19N 35°37' E 139°47'0 0.0
2017-Dec-03 23:01N 35°37' E 139°47'3 5.5
2017-Dec-03 22:31N 35°35' E 139°48'4 7.5
2017-Dec-03 22:00N 35°34' E 139°53'0 0.1
2017-Dec-03 21:30N 35°34' E 139°53'0 0.0
2017-Dec-03 21:00N 35°34' E 139°53'0 0.0
2017-Dec-03 20:30N 35°34' E 139°53'0 0.1
2017-Dec-03 20:00N 35°34' E 139°53'0 0.1
2017-Dec-03 19:30N 35°34' E 139°53'0 0.1
2017-Dec-03 18:57N 35°34' E 139°53'0 0.1
2017-Dec-03 18:30N 35°34' E 139°53'0 0.1
2017-Dec-03 17:57N 35°34' E 139°53'0 0.0
2017-Dec-03 17:30N 35°34' E 139°53'0 0.0
2017-Dec-03 17:00N 35°34' E 139°53'0 0.0
2017-Dec-03 16:30N 35°34' E 139°53'0 0.0
2017-Dec-03 16:00N 35°34' E 139°53'0 0.0
2017-Dec-03 15:30N 35°34' E 139°53'0 0.1
2017-Dec-03 15:00N 35°34' E 139°53'0 0.0
2017-Dec-03 14:30N 35°34' E 139°53'0 0.1
2017-Dec-03 14:00N 35°34' E 139°53'0 0.1
2017-Dec-03 13:30N 35°34' E 139°53'0 0.0
2017-Dec-03 13:00N 35°34' E 139°53'0 0.1
2017-Dec-03 12:27N 35°34' E 139°53'0 0.0
2017-Dec-03 12:00N 35°34' E 139°53'0 0.0
2017-Dec-03 11:30N 35°34' E 139°53'0 0.0
2017-Dec-03 10:57N 35°34' E 139°53'0 0.0
2017-Dec-03 10:30N 35°34' E 139°53'0 0.0
2017-Dec-03 10:00N 35°34' E 139°53'0 0.0
2017-Dec-03 09:27N 35°34' E 139°53'0 0.0
2017-Dec-03 08:57N 35°34' E 139°53'0 0.0
2017-Dec-03 08:09N 35°34' E 139°53'0 0.0
2017-Dec-03 08:00N 35°34' E 139°53'0 0.0
2017-Dec-03 07:30N 35°34' E 139°53'0 0.0
2017-Dec-03 06:57N 35°34' E 139°53'0 0.0
2017-Dec-03 06:21N 35°34' E 139°53'0 0.0
2017-Dec-03 05:54N 35°34' E 139°53'0 0.0
2017-Dec-03 05:30N 35°34' E 139°53'0 0.1
2017-Dec-03 04:57N 35°34' E 139°53'0 0.0
2017-Dec-03 04:30N 35°34' E 139°53'0 0.0
2017-Dec-03 04:00N 35°34' E 139°53'0 0.0
2017-Dec-03 03:24N 35°34' E 139°53'0 0.0
2017-Dec-03 03:00N 35°34' E 139°53'0 0.1
2017-Dec-03 02:27N 35°34' E 139°53'0 0.0
2017-Dec-03 02:00N 35°34' E 139°53'0 0.0
2017-Dec-03 01:30N 35°34' E 139°53'0 0.0
2017-Dec-03 01:00N 35°34' E 139°53'0 0.0
2017-Dec-03 00:30N 35°34' E 139°53'0 0.0
2017-Dec-03 00:00N 35°34' E 139°53'0 0.0
2017-Dec-02 23:30N 35°34' E 139°53'1 1.1
2017-Dec-02 23:00N 35°33' E 139°53'815.9
2017-Dec-02 22:30N 35°26' E 139°48'612.9
2017-Dec-02 22:00N 35°20' E 139°45'611.6
2017-Dec-02 21:30N 35°15' E 139°47'815.1
2017-Dec-02 21:00N 35°08' E 139°45'918.4
2017-Dec-02 20:30N 34°59' E 139°40'918.1
2017-Dec-02 20:00N 34°55' E 139°30'1019.5
2017-Dec-02 19:30N 34°50' E 139°20'1118.8
2017-Dec-02 18:53N 34°41' E 139°11'718.8
2017-Dec-02 18:30N 34°36' E 139°04'918.2
2017-Dec-02 18:01N 34°32' E 138°55'1019.4
2017-Dec-02 17:30N 34°29' E 138°43'1019.5
2017-Dec-02 17:00N 34°28' E 138°32'919.3
2017-Dec-02 16:30N 34°27' E 138°20'1019.2
2017-Dec-02 15:59N 34°25' E 138°08'918.8
2017-Dec-02 15:29N 34°22' E 137°57'8218.2
2017-Dec-02 10:58N 33°46' E 136°28'5617.1
2017-Dec-02 07:43N 33°31' E 135°24'819.0
2017-Dec-02 07:18N 33°36' E 135°17'1519.2
2017-Dec-02 06:32N 33°47' E 135°05'419.1
2017-Dec-02 06:20N 33°50' E 135°02'618.1
2017-Dec-02 06:00N 33°56' E 134°60'918.8
2017-Dec-02 05:30N 34°05' E 134°58'1019.3
2017-Dec-02 05:00N 34°15' E 134°58'1019.2
2017-Dec-02 04:30N 34°23' E 135°02'1019.7
2017-Dec-02 04:00N 34°30' E 135°11'918.2
2017-Dec-02 03:31N 34°36' E 135°20'510.1
2017-Dec-02 03:00N 34°37' E 135°26'0 0.2
2017-Dec-02 02:29N 34°37' E 135°26'0 0.0
2017-Dec-02 01:59N 34°37' E 135°26'0 0.0
2017-Dec-02 01:26N 34°37' E 135°26'0 0.0
2017-Dec-02 00:59N 34°37' E 135°26'0 0.0
2017-Dec-02 00:29N 34°37' E 135°26'0 0.0
2017-Dec-01 23:59N 34°37' E 135°26'0 0.0
2017-Dec-01 23:29N 34°37' E 135°26'0 0.1
2017-Dec-01 22:59N 34°37' E 135°26'0 0.1
2017-Dec-01 22:30N 34°37' E 135°26'3 6.8
2017-Dec-01 22:01N 34°37' E 135°21'918.2
2017-Dec-01 21:31N 34°30' E 135°14'918.8
2017-Dec-01 21:01N 34°23' E 135°06'1019.2
2017-Dec-01 20:31N 34°16' E 134°59'1019.0
2017-Dec-01 20:01N 34°07' E 134°56'1020.1
2017-Dec-01 19:30N 33°57' E 134°53'1019.5
2017-Dec-01 19:00N 33°47' E 134°50'1119.6
2017-Dec-01 18:26N 33°38' E 134°42'  
Track history (hours):
 
Tides and Currents Weather Stations Pressure Air Temp Water Temp Dewpoint Dewpoint Depression Visibility Wind Speed Wind Dir Waves Ship Positions

Shuri

Last reported at 2017-Dec-11 16:26 UTC. Time now 2017-Dec-12 17:56 UTC.
Position N 34°28' E 138°21'.

Length 167 m; draft 6.4 m.

Type: Cargo ship. MMSI: 431501723.

Date/timePositionNaut miles runAvg speedWind from/ knotsBaromVisibWave heightAir tempDewpointWater temp
2017-Dec-11 16:26N 34°28' E 138°21'816.6
2017-Dec-11 15:57N 34°29' E 138°30'816.5
2017-Dec-11 15:30N 34°31' E 138°39'816.7
2017-Dec-11 15:00N 34°32' E 138°49'816.3
2017-Dec-11 14:30N 34°33' E 138°59'816.0
2017-Dec-11 14:00N 34°37' E 139°07'917.5
2017-Dec-11 13:30N 34°44' E 139°14'917.7
2017-Dec-11 13:00N 34°51' E 139°21'917.2
2017-Dec-11 12:29N 34°57' E 139°29'817.8
2017-Dec-11 12:01N 35°02' E 139°37'917.6
2017-Dec-11 11:30N 35°09' E 139°44'713.3
2017-Dec-11 11:00N 35°15' E 139°46'612.5
2017-Dec-11 10:30N 35°21' E 139°43'816.3
2017-Dec-11 10:01N 35°28' E 139°48'713.3
2017-Dec-11 09:30N 35°34' E 139°49'3 6.9
2017-Dec-11 09:00N 35°37' E 139°47'0 0.0
2017-Dec-11 01:32N 35°37' E 139°47'0 0.0
2017-Dec-11 01:29N 35°37' E 139°47'0 0.0
2017-Dec-11 00:59N 35°37' E 139°47'0 0.0
2017-Dec-10 23:44N 35°37' E 139°47'0 0.0
2017-Dec-10 22:47N 35°37' E 139°47'0 0.0
2017-Dec-10 22:29N 35°37' E 139°47'0 0.0
2017-Dec-10 21:59N 35°37' E 139°47'0 0.0
2017-Dec-10 20:53N 35°37' E 139°47'0 0.0
2017-Dec-10 19:17N 35°37' E 139°47'0 0.0
2017-Dec-10 17:35N 35°37' E 139°47'0 0.0
2017-Dec-10 16:05N 35°37' E 139°47'0 0.1
2017-Dec-10 15:59N 35°37' E 139°47'0 0.0
2017-Dec-10 10:20N 35°37' E 139°47'0 0.0
2017-Dec-10 09:59N 35°37' E 139°47'0 0.0
2017-Dec-10 09:29N 35°37' E 139°47'0 0.0
2017-Dec-10 08:23N 35°37' E 139°47'0 0.0
2017-Dec-10 07:59N 35°37' E 139°47'0 0.0
2017-Dec-10 07:23N 35°37' E 139°47'0 0.0
2017-Dec-10 05:59N 35°37' E 139°47'0 0.0
2017-Dec-10 03:35N 35°37' E 139°47'0 0.0
2017-Dec-10 03:05N 35°37' E 139°47'0 0.0
2017-Dec-10 02:47N 35°37' E 139°47'0 0.0
2017-Dec-10 00:41N 35°37' E 139°47'0 0.0
2017-Dec-10 00:23N 35°37' E 139°47'0 0.0
2017-Dec-09 23:32N 35°37' E 139°47'0 0.0
2017-Dec-09 23:29N 35°37' E 139°47'0 0.3
2017-Dec-09 23:00N 35°37' E 139°47'3 6.0
2017-Dec-09 22:30N 35°35' E 139°48'510.2
2017-Dec-09 22:01N 35°31' E 139°52'815.3
2017-Dec-09 21:30N 35°24' E 139°47'612.6
2017-Dec-09 21:00N 35°18' E 139°44'611.6
2017-Dec-09 20:31N 35°13' E 139°47'713.2
2017-Dec-09 20:00N 35°06' E 139°45'917.2
2017-Dec-09 19:30N 34°59' E 139°40'918.7
2017-Dec-09 19:00N 34°54' E 139°30'1020.0
2017-Dec-09 18:31N 34°49' E 139°20'1120.2
2017-Dec-09 17:59N 34°41' E 139°11'1020.6
2017-Dec-09 17:31N 34°34' E 139°03'1221.0
2017-Dec-09 16:57N 34°29' E 138°50'1021.0
2017-Dec-09 16:29N 34°26' E 138°39'1021.6
2017-Dec-09 16:00N 34°22' E 138°27'1321.3
2017-Dec-09 15:24N 34°15' E 138°14'9220.1
2017-Dec-09 10:51N 33°36' E 136°34'5917.9
2017-Dec-09 07:33N 33°30' E 135°24'519.5
2017-Dec-09 07:17N 33°33' E 135°19'1620.3
2017-Dec-09 06:30N 33°45' E 135°07'1020.5
2017-Dec-09 06:00N 33°54' E 135°00'1019.4
2017-Dec-09 05:30N 34°03' E 134°59'918.8
2017-Dec-09 05:00N 34°13' E 134°58'816.5
2017-Dec-09 04:31N 34°21' E 135°00'917.4
2017-Dec-09 04:01N 34°27' E 135°07'918.1
2017-Dec-09 03:31N 34°33' E 135°16'815.9
2017-Dec-09 03:00N 34°38' E 135°23'2 3.7
2017-Dec-09 02:29N 34°37' E 135°26'0 0.0
2017-Dec-09 01:59N 34°37' E 135°26'0 0.0
2017-Dec-09 01:29N 34°37' E 135°26'0 0.0
2017-Dec-09 00:59N 34°37' E 135°26'0 0.0
2017-Dec-09 00:29N 34°37' E 135°26'0 0.0
2017-Dec-08 23:59N 34°37' E 135°26'0 0.0
2017-Dec-08 23:29N 34°37' E 135°26'0 0.0
2017-Dec-08 22:59N 34°37' E 135°26'0 0.0
2017-Dec-08 22:29N 34°37' E 135°26'0 0.5
2017-Dec-08 22:01N 34°37' E 135°25'5 9.3
2017-Dec-08 21:30N 34°36' E 135°20'917.6
2017-Dec-08 21:00N 34°29' E 135°13'917.4
2017-Dec-08 20:30N 34°23' E 135°05'817.0
2017-Dec-08 20:01N 34°16' E 134°59'816.8
2017-Dec-08 19:30N 34°08' E 134°57'917.8
2017-Dec-08 19:00N 33°60' E 134°54'917.5
2017-Dec-08 18:30N 33°51' E 134°52'917.2
2017-Dec-08 18:00N 33°44' E 134°46'9718.0
2017-Dec-08 12:38N 32°44' E 133°16'  
2017-Dec-04 10:31N 35°25' E 139°44'917.4
2017-Dec-04 10:00N 35°31' E 139°51'612.2
2017-Dec-04 09:30N 35°37' E 139°48'1 1.5
2017-Dec-04 08:58N 35°37' E 139°47'0 0.0
2017-Dec-04 08:19N 35°37' E 139°47'0 0.0
2017-Dec-04 07:58N 35°37' E 139°47'0 0.0
2017-Dec-04 06:46N 35°37' E 139°47'0 0.0
2017-Dec-04 06:16N 35°37' E 139°47'0 0.0
2017-Dec-04 05:28N 35°37' E 139°47'0 0.0
2017-Dec-04 04:58N 35°37' E 139°47'0 0.0
2017-Dec-04 04:28N 35°37' E 139°47'0 0.0
2017-Dec-04 03:55N 35°37' E 139°47'0 0.0
2017-Dec-04 02:31N 35°37' E 139°47'0 0.0
2017-Dec-04 02:22N 35°37' E 139°47'0 0.0
2017-Dec-04 01:49N 35°37' E 139°47'0 0.0
2017-Dec-04 01:22N 35°37' E 139°47'0 0.0
2017-Dec-04 00:58N 35°37' E 139°47'0 0.0
2017-Dec-04 00:28N 35°37' E 139°47'0 0.0
2017-Dec-03 23:58N 35°37' E 139°47'0 0.0
2017-Dec-03 23:19N 35°37' E 139°47'0 0.0
2017-Dec-03 23:01N 35°37' E 139°47'3 5.5
2017-Dec-03 22:31N 35°35' E 139°48'4 7.5
2017-Dec-03 22:00N 35°34' E 139°53'0 0.1
2017-Dec-03 21:30N 35°34' E 139°53'0 0.0
2017-Dec-03 21:00N 35°34' E 139°53'0 0.0
2017-Dec-03 20:30N 35°34' E 139°53'0 0.1
2017-Dec-03 20:00N 35°34' E 139°53'0 0.1
2017-Dec-03 19:30N 35°34' E 139°53'0 0.1
2017-Dec-03 18:57N 35°34' E 139°53'0 0.1
2017-Dec-03 18:30N 35°34' E 139°53'0 0.1
2017-Dec-03 17:57N 35°34' E 139°53'0 0.0
2017-Dec-03 17:30N 35°34' E 139°53'0 0.0
2017-Dec-03 17:00N 35°34' E 139°53'0 0.0
2017-Dec-03 16:30N 35°34' E 139°53'0 0.0
2017-Dec-03 16:00N 35°34' E 139°53'0 0.0
2017-Dec-03 15:30N 35°34' E 139°53'0 0.1
2017-Dec-03 15:00N 35°34' E 139°53'0 0.0
2017-Dec-03 14:30N 35°34' E 139°53'0 0.1
2017-Dec-03 14:00N 35°34' E 139°53'0 0.1
2017-Dec-03 13:30N 35°34' E 139°53'0 0.0
2017-Dec-03 13:00N 35°34' E 139°53'0 0.1
2017-Dec-03 12:27N 35°34' E 139°53'0 0.0
2017-Dec-03 12:00N 35°34' E 139°53'0 0.0
2017-Dec-03 11:30N 35°34' E 139°53'0 0.0
2017-Dec-03 10:57N 35°34' E 139°53'0 0.0
2017-Dec-03 10:30N 35°34' E 139°53'0 0.0
2017-Dec-03 10:00N 35°34' E 139°53'0 0.0
2017-Dec-03 09:27N 35°34' E 139°53'0 0.0
2017-Dec-03 08:57N 35°34' E 139°53'0 0.0
2017-Dec-03 08:09N 35°34' E 139°53'0 0.0
2017-Dec-03 08:00N 35°34' E 139°53'0 0.0
2017-Dec-03 07:30N 35°34' E 139°53'0 0.0
2017-Dec-03 06:57N 35°34' E 139°53'0 0.0
2017-Dec-03 06:21N 35°34' E 139°53'0 0.0
2017-Dec-03 05:54N 35°34' E 139°53'0 0.0
2017-Dec-03 05:30N 35°34' E 139°53'0 0.1
2017-Dec-03 04:57N 35°34' E 139°53'0 0.0
2017-Dec-03 04:30N 35°34' E 139°53'0 0.0
2017-Dec-03 04:00N 35°34' E 139°53'0 0.0
2017-Dec-03 03:24N 35°34' E 139°53'0 0.0
2017-Dec-03 03:00N 35°34' E 139°53'0 0.1
2017-Dec-03 02:27N 35°34' E 139°53'0 0.0
2017-Dec-03 02:00N 35°34' E 139°53'0 0.0
2017-Dec-03 01:30N 35°34' E 139°53'0 0.0
2017-Dec-03 01:00N 35°34' E 139°53'0 0.0
2017-Dec-03 00:30N 35°34' E 139°53'0 0.0
2017-Dec-03 00:00N 35°34' E 139°53'0 0.0
2017-Dec-02 23:30N 35°34' E 139°53'1 1.1
2017-Dec-02 23:00N 35°33' E 139°53'815.9
2017-Dec-02 22:30N 35°26' E 139°48'612.9
2017-Dec-02 22:00N 35°20' E 139°45'611.6
2017-Dec-02 21:30N 35°15' E 139°47'815.1
2017-Dec-02 21:00N 35°08' E 139°45'918.4
2017-Dec-02 20:30N 34°59' E 139°40'918.1
2017-Dec-02 20:00N 34°55' E 139°30'1019.5
2017-Dec-02 19:30N 34°50' E 139°20'1118.8
2017-Dec-02 18:53N 34°41' E 139°11'718.8
2017-Dec-02 18:30N 34°36' E 139°04'918.2
2017-Dec-02 18:01N 34°32' E 138°55'1019.4
2017-Dec-02 17:30N 34°29' E 138°43'1019.5
2017-Dec-02 17:00N 34°28' E 138°32'919.3
2017-Dec-02 16:30N 34°27' E 138°20'1019.2
2017-Dec-02 15:59N 34°25' E 138°08'918.8
2017-Dec-02 15:29N 34°22' E 137°57'8218.2
2017-Dec-02 10:58N 33°46' E 136°28'5617.1
2017-Dec-02 07:43N 33°31' E 135°24'819.0
2017-Dec-02 07:18N 33°36' E 135°17'1519.2
2017-Dec-02 06:32N 33°47' E 135°05'419.1
2017-Dec-02 06:20N 33°50' E 135°02'618.1
2017-Dec-02 06:00N 33°56' E 134°60'918.8
2017-Dec-02 05:30N 34°05' E 134°58'1019.3
2017-Dec-02 05:00N 34°15' E 134°58'1019.2
2017-Dec-02 04:30N 34°23' E 135°02'1019.7
2017-Dec-02 04:00N 34°30' E 135°11'918.2
2017-Dec-02 03:31N 34°36' E 135°20'510.1
2017-Dec-02 03:00N 34°37' E 135°26'0 0.2
2017-Dec-02 02:29N 34°37' E 135°26'0 0.0
2017-Dec-02 01:59N 34°37' E 135°26'0 0.0
2017-Dec-02 01:26N 34°37' E 135°26'0 0.0
2017-Dec-02 00:59N 34°37' E 135°26'0 0.0
2017-Dec-02 00:29N 34°37' E 135°26'0 0.0
2017-Dec-01 23:59N 34°37' E 135°26'0 0.0
2017-Dec-01 23:29N 34°37' E 135°26'0 0.1
2017-Dec-01 22:59N 34°37' E 135°26'0 0.1
2017-Dec-01 22:30N 34°37' E 135°26'3 6.8
2017-Dec-01 22:01N 34°37' E 135°21'918.2
2017-Dec-01 21:31N 34°30' E 135°14'918.8
2017-Dec-01 21:01N 34°23' E 135°06'1019.2
2017-Dec-01 20:31N 34°16' E 134°59'1019.0
2017-Dec-01 20:01N 34°07' E 134°56'1020.1
2017-Dec-01 19:30N 33°57' E 134°53'1019.5
2017-Dec-01 19:00N 33°47' E 134°50'1119.6
2017-Dec-01 18:26N 33°38' E 134°42'  

Dump ship's entire track history